createdAt,value
2022-12-09T00:02:05.264Z,16.77
2022-12-09T00:04:32.190Z,17.10
2022-12-09T00:06:59.126Z,16.13
2022-12-09T00:09:26.069Z,19.42
2022-12-09T00:11:52.986Z,18.35
2022-12-09T00:14:19.758Z,17.38
2022-12-09T00:16:46.610Z,16.70
2022-12-09T00:19:13.451Z,17.55
2022-12-09T00:21:40.172Z,19.30
2022-12-09T00:24:08.032Z,16.85
2022-12-09T00:26:34.768Z,20.00
2022-12-09T00:29:01.845Z,17.10
2022-12-09T00:31:30.882Z,15.85
2022-12-09T00:33:59.488Z,16.30
2022-12-09T00:36:26.727Z,15.57
2022-12-09T00:38:54.021Z,16.67
2022-12-09T00:41:20.871Z,17.70
2022-12-09T00:43:47.718Z,18.05
2022-12-09T00:46:15.200Z,14.50
2022-12-09T00:48:42.587Z,17.30
2022-12-09T00:51:11.262Z,15.57
2022-12-09T00:53:39.121Z,14.05
2022-12-09T00:56:06.489Z,14.73
2022-12-09T00:58:34.391Z,16.95
2022-12-09T01:01:01.299Z,15.43
2022-12-09T01:03:28.463Z,15.40
2022-12-09T01:05:55.894Z,14.52
2022-12-09T01:08:23.121Z,17.77
2022-12-09T01:10:50.121Z,15.90
2022-12-09T01:13:17.451Z,14.02
2022-12-09T01:15:44.552Z,14.73
2022-12-09T01:18:12.096Z,14.40
2022-12-09T01:20:39.351Z,16.92
2022-12-09T01:23:06.505Z,15.15
2022-12-09T01:25:33.226Z,16.58
2022-12-09T01:27:59.877Z,13.68
2022-12-09T01:30:26.547Z,13.93
2022-12-09T01:32:53.341Z,17.30
2022-12-09T01:35:20.604Z,13.90
2022-12-09T01:37:47.472Z,13.95
2022-12-09T01:40:17.057Z,17.23
2022-12-09T01:42:44.111Z,15.55
2022-12-09T01:45:20.060Z,14.45
2022-12-09T01:47:52.072Z,16.88
2022-12-09T01:50:18.918Z,15.98
2022-12-09T01:52:46.791Z,14.75
2022-12-09T01:55:14.019Z,15.50
2022-12-09T01:57:41.012Z,15.48
2022-12-09T02:00:08.256Z,15.68
2022-12-09T02:02:44.636Z,17.50
2022-12-09T02:05:12.134Z,15.55
2022-12-09T02:07:41.464Z,15.20
2022-12-09T02:10:18.643Z,15.20
2022-12-09T02:13:00.446Z,17.45
2022-12-09T02:15:39.528Z,17.45
2022-12-09T02:18:14.499Z,20.92
2022-12-09T02:20:47.463Z,17.65
2022-12-09T02:23:25.046Z,16.08
2022-12-09T02:25:57.131Z,15.85
2022-12-09T02:28:27.143Z,15.95
2022-12-09T02:31:12.847Z,16.85
2022-12-09T02:33:58.618Z,20.38
2022-12-09T02:36:27.844Z,17.42
2022-12-09T02:38:56.309Z,18.30
2022-12-09T02:41:29.349Z,16.88
2022-12-09T02:44:16.038Z,15.88
2022-12-09T02:46:43.705Z,17.10
2022-12-09T02:49:12.369Z,17.42
2022-12-09T02:51:42.448Z,17.15
2022-12-09T02:54:14.680Z,16.98
2022-12-09T02:56:45.580Z,19.55
2022-12-09T02:59:12.292Z,16.92
2022-12-09T03:01:45.741Z,18.85
2022-12-09T03:04:17.580Z,22.38
2022-12-09T03:06:48.481Z,19.65
2022-12-09T03:09:18.426Z,18.40
2022-12-09T03:11:46.002Z,20.67
2022-12-09T03:14:18.940Z,19.30
2022-12-09T03:17:01.086Z,17.77
2022-12-09T03:19:46.633Z,18.83
2022-12-09T03:22:15.549Z,21.10
2022-12-09T03:24:44.321Z,19.13
2022-12-09T03:27:13.963Z,18.00
2022-12-09T03:29:42.785Z,18.98
2022-12-09T03:32:10.420Z,18.98
2022-12-09T03:34:39.608Z,22.23
2022-12-09T03:37:07.095Z,20.20
2022-12-09T03:39:35.661Z,21.13
2022-12-09T03:42:13.032Z,19.67
2022-12-09T03:44:41.512Z,19.17
2022-12-09T03:47:09.713Z,24.75
2022-12-09T03:49:37.838Z,20.52
2022-12-09T03:52:07.945Z,21.33
2022-12-09T03:54:49.862Z,25.63
2022-12-09T03:57:19.251Z,25.50
2022-12-09T03:59:59.986Z,24.58
2022-12-09T04:02:27.447Z,22.77
2022-12-09T04:04:54.355Z,25.13
2022-12-09T04:07:21.050Z,22.83
2022-12-09T04:09:47.867Z,23.33
2022-12-09T04:12:15.217Z,23.50
2022-12-09T04:14:42.044Z,25.67
2022-12-09T04:17:08.777Z,21.58
2022-12-09T04:19:35.893Z,24.60
2022-12-09T04:22:02.574Z,25.08
2022-12-09T04:24:29.420Z,25.17
2022-12-09T04:26:56.084Z,27.10
2022-12-09T04:29:23.002Z,31.77
2022-12-09T04:31:49.816Z,30.00
2022-12-09T04:34:16.842Z,27.23
2022-12-09T04:36:43.748Z,30.08
2022-12-09T04:39:10.661Z,30.55
2022-12-09T04:41:37.690Z,30.38
2022-12-09T04:44:04.456Z,31.80
2022-12-09T04:46:31.222Z,27.75
2022-12-09T04:48:58.294Z,30.70
2022-12-09T04:51:25.306Z,34.00
2022-12-09T04:53:52.025Z,29.75
2022-12-09T04:56:19.599Z,26.98
2022-12-09T04:58:46.933Z,28.73
2022-12-09T05:01:17.704Z,29.80
2022-12-09T05:03:48.456Z,30.35
2022-12-09T05:06:15.776Z,30.90
2022-12-09T05:08:43.212Z,28.90
2022-12-09T05:11:10.170Z,29.80
2022-12-09T05:13:37.587Z,34.63
2022-12-09T05:16:15.461Z,29.38
2022-12-09T05:18:43.394Z,28.33
2022-12-09T05:21:12.647Z,28.83
2022-12-09T05:23:39.556Z,29.05
2022-12-09T05:26:07.638Z,31.95
2022-12-09T05:28:35.018Z,32.97
2022-12-09T05:31:02.601Z,26.38
2022-12-09T05:33:30.295Z,29.95
2022-12-09T05:35:57.291Z,31.30
2022-12-09T05:38:24.602Z,29.38
2022-12-09T05:40:52.651Z,32.60
2022-12-09T05:43:21.185Z,33.30
2022-12-09T05:45:47.907Z,27.30
2022-12-09T05:48:14.932Z,29.40
2022-12-09T05:50:41.744Z,27.67
2022-12-09T05:53:08.494Z,29.52
2022-12-09T05:55:35.673Z,27.05
2022-12-09T05:58:02.781Z,31.15
2022-12-09T06:00:29.750Z,31.85
2022-12-09T06:02:56.923Z,29.90
2022-12-09T06:05:23.871Z,28.85
2022-12-09T06:07:50.794Z,23.58
2022-12-09T06:10:17.849Z,29.55
2022-12-09T06:12:44.902Z,27.33
2022-12-09T06:15:13.531Z,25.17
2022-12-09T06:17:44.116Z,23.95
2022-12-09T06:20:11.234Z,28.63
2022-12-09T06:22:38.578Z,31.65
2022-12-09T06:25:05.493Z,41.78
2022-12-09T06:27:32.584Z,44.70
2022-12-09T06:29:59.519Z,46.30
2022-12-09T06:32:26.637Z,41.22
2022-12-09T06:34:53.800Z,31.65
2022-12-09T06:37:20.685Z,31.67
2022-12-09T06:39:47.370Z,28.33
2022-12-09T06:42:14.431Z,28.65
2022-12-09T06:44:41.548Z,29.17
2022-12-09T06:47:08.478Z,32.72
2022-12-09T06:49:35.469Z,27.98
2022-12-09T06:52:02.499Z,27.98
2022-12-09T06:54:29.659Z,27.63
2022-12-09T06:56:56.483Z,29.83
2022-12-09T06:59:23.566Z,28.02
2022-12-09T07:01:50.817Z,26.38
2022-12-09T07:04:17.861Z,24.35
2022-12-09T07:06:45.397Z,25.70
2022-12-09T07:09:16.591Z,25.95
2022-12-09T07:11:46.321Z,24.73
2022-12-09T07:14:14.131Z,26.90
2022-12-09T07:16:40.911Z,31.17
2022-12-09T07:19:08.075Z,30.80
2022-12-09T07:21:35.211Z,27.85
2022-12-09T07:24:02.954Z,25.38
2022-12-09T07:26:33.678Z,28.98
2022-12-09T07:29:05.129Z,33.13
2022-12-09T07:31:32.687Z,30.90
2022-12-09T07:34:00.163Z,30.60
2022-12-09T07:36:28.769Z,30.33
2022-12-09T07:38:56.672Z,28.70
2022-12-09T07:41:25.247Z,27.67
2022-12-09T07:43:52.313Z,25.38
2022-12-09T07:46:19.998Z,39.17
2022-12-09T07:48:49.106Z,79.00
2022-12-09T07:51:16.298Z,42.50
2022-12-09T07:53:43.322Z,30.50
2022-12-09T07:56:11.798Z,27.48
2022-12-09T07:58:38.962Z,26.33
2022-12-09T08:01:09.510Z,25.92
2022-12-09T08:03:36.707Z,27.17
2022-12-09T08:06:04.196Z,28.55
2022-12-09T08:08:32.202Z,25.40
2022-12-09T08:11:13.778Z,23.33
2022-12-09T08:13:42.393Z,25.50
2022-12-09T08:16:10.931Z,26.05
2022-12-09T08:18:38.167Z,28.27
2022-12-09T08:21:11.070Z,29.55
2022-12-09T08:23:38.282Z,31.08
2022-12-09T08:26:05.603Z,26.42
2022-12-09T08:28:33.192Z,25.00
2022-12-09T08:31:06.158Z,29.30
2022-12-09T08:33:34.579Z,26.67
2022-12-09T08:36:02.570Z,25.83
2022-12-09T08:38:31.995Z,28.60
2022-12-09T08:40:59.079Z,27.73
2022-12-09T08:43:26.382Z,31.13
2022-12-09T08:45:53.230Z,29.38
2022-12-09T08:48:22.267Z,28.00
2022-12-09T08:50:49.318Z,29.30
2022-12-09T08:53:16.057Z,30.42
2022-12-09T08:55:43.017Z,28.48
2022-12-09T08:58:09.853Z,26.35
2022-12-09T09:00:36.542Z,31.60
2022-12-09T09:03:03.841Z,29.90
2022-12-09T09:05:31.184Z,31.30
2022-12-09T09:07:58.514Z,30.88
2022-12-09T09:10:25.894Z,29.15
2022-12-09T09:12:52.773Z,27.70
2022-12-09T09:15:19.713Z,31.20
2022-12-09T09:17:51.582Z,27.20
2022-12-09T09:20:19.966Z,27.25
2022-12-09T09:22:47.050Z,31.45
2022-12-09T09:25:14.618Z,27.50
2022-12-09T09:27:41.609Z,29.70
2022-12-09T09:30:10.313Z,28.55
2022-12-09T09:32:37.322Z,32.97
2022-12-09T09:35:04.342Z,39.85
2022-12-09T09:37:31.642Z,31.55
2022-12-09T09:39:58.361Z,32.35
2022-12-09T09:42:31.013Z,32.88
2022-12-09T09:44:58.302Z,31.17
2022-12-09T09:47:40.833Z,30.30
2022-12-09T09:50:28.648Z,28.85
2022-12-09T09:52:56.079Z,33.38
2022-12-09T09:55:43.291Z,31.17
2022-12-09T09:58:28.673Z,32.35
2022-12-09T10:01:03.293Z,32.42
2022-12-09T10:03:36.433Z,37.55
2022-12-09T10:06:11.641Z,35.58
2022-12-09T10:08:56.211Z,32.17
2022-12-09T10:11:33.071Z,31.88
2022-12-09T10:14:14.168Z,29.75
2022-12-09T10:16:51.488Z,31.08
2022-12-09T10:19:25.959Z,29.75
2022-12-09T10:21:54.715Z,34.35
2022-12-09T10:24:39.210Z,33.53
2022-12-09T10:27:26.474Z,33.17
2022-12-09T10:29:55.830Z,34.47
2022-12-09T10:32:25.584Z,31.48
2022-12-09T10:34:52.554Z,33.92
2022-12-09T10:37:31.454Z,31.27
2022-12-09T10:40:04.992Z,29.60
2022-12-09T10:42:53.594Z,30.23
2022-12-09T10:45:22.518Z,31.85
2022-12-09T10:47:50.045Z,29.70
2022-12-09T10:50:37.472Z,28.38
2022-12-09T10:53:12.896Z,29.88
2022-12-09T10:55:44.235Z,27.25
2022-12-09T10:58:31.056Z,29.20
2022-12-09T11:01:11.947Z,29.77
2022-12-09T11:03:38.929Z,30.92
2022-12-09T11:06:12.348Z,30.25
2022-12-09T11:08:40.914Z,31.02
2022-12-09T11:11:07.903Z,31.05
2022-12-09T11:13:41.227Z,30.30
2022-12-09T11:16:08.324Z,31.55
2022-12-09T11:18:47.279Z,37.72
2022-12-09T11:21:28.841Z,31.55
2022-12-09T11:24:02.601Z,32.83
2022-12-09T11:26:37.608Z,30.90
2022-12-09T11:29:14.094Z,30.40
2022-12-09T11:31:41.291Z,29.80
2022-12-09T11:34:23.333Z,31.15
2022-12-09T11:36:52.096Z,33.72
2022-12-09T11:39:24.166Z,29.70
2022-12-09T11:42:16.432Z,27.20
2022-12-09T11:44:46.576Z,28.27
2022-12-09T11:47:20.334Z,28.15
2022-12-09T11:49:55.478Z,26.30
2022-12-09T11:52:23.653Z,28.60
2022-12-09T11:54:50.345Z,30.17
2022-12-09T11:57:32.852Z,29.50
2022-12-09T12:00:01.700Z,29.58
2022-12-09T12:02:31.371Z,32.15
2022-12-09T12:04:58.399Z,30.73
2022-12-09T12:07:35.214Z,31.98
2022-12-09T12:10:02.584Z,33.88
2022-12-09T12:12:44.012Z,31.05
2022-12-09T12:15:20.068Z,28.75
2022-12-09T12:17:51.804Z,30.27
2022-12-09T12:20:18.544Z,28.48
2022-12-09T12:22:54.674Z,29.80
2022-12-09T12:25:33.914Z,30.63
2022-12-09T12:28:03.362Z,30.85
2022-12-09T12:30:55.432Z,29.70
2022-12-09T12:34:00.395Z,31.65
2022-12-09T12:36:27.584Z,29.90
2022-12-09T12:39:06.458Z,28.05
2022-12-09T12:41:39.345Z,30.65
2022-12-09T12:44:43.610Z,30.88
2022-12-09T12:47:10.241Z,31.15
2022-12-09T12:49:46.237Z,28.88
2022-12-09T12:52:47.465Z,29.10
2022-12-09T12:55:14.911Z,30.60
2022-12-09T12:57:55.267Z,29.02
2022-12-09T13:00:24.148Z,30.45
2022-12-09T13:03:09.785Z,26.42
2022-12-09T13:05:38.404Z,28.40
2022-12-09T13:08:09.604Z,27.33
2022-12-09T13:10:36.312Z,30.52
2022-12-09T13:13:04.230Z,26.50
2022-12-09T13:15:35.607Z,26.13
2022-12-09T13:18:22.490Z,27.67
2022-12-09T13:20:50.371Z,31.13
2022-12-09T13:23:21.985Z,29.25
2022-12-09T13:25:53.687Z,28.42
2022-12-09T13:28:24.512Z,27.75
2022-12-09T13:30:56.614Z,31.17
2022-12-09T13:33:41.668Z,28.05
2022-12-09T13:36:34.571Z,26.55
2022-12-09T13:39:03.125Z,29.17
2022-12-09T13:41:29.786Z,29.92
2022-12-09T13:44:08.902Z,28.33
2022-12-09T13:46:35.990Z,28.85
2022-12-09T13:49:10.339Z,27.33
2022-12-09T13:51:48.434Z,31.55
2022-12-09T13:54:16.539Z,32.15
2022-12-09T13:56:44.258Z,30.42
2022-12-09T13:59:29.696Z,31.02
2022-12-09T14:02:10.736Z,30.60
2022-12-09T14:04:43.906Z,29.50
2022-12-09T14:07:13.667Z,38.03
2022-12-09T14:09:49.326Z,36.85
2022-12-09T14:12:15.942Z,34.03
2022-12-09T14:14:50.788Z,35.55
2022-12-09T14:17:20.590Z,29.10
2022-12-09T14:19:51.925Z,26.20
2022-12-09T14:22:19.580Z,29.67
2022-12-09T14:24:53.353Z,29.70
2022-12-09T14:27:24.263Z,30.77
2022-12-09T14:29:55.552Z,30.42
2022-12-09T14:32:45.423Z,28.20
2022-12-09T14:35:12.047Z,28.90
2022-12-09T14:37:47.556Z,28.75
2022-12-09T14:40:14.175Z,28.15
2022-12-09T14:42:44.603Z,27.35
2022-12-09T14:45:23.562Z,30.05
2022-12-09T14:47:50.707Z,25.33
2022-12-09T14:50:19.293Z,28.70
2022-12-09T14:52:50.849Z,27.17
2022-12-09T14:55:18.461Z,26.08
2022-12-09T14:57:46.587Z,28.27
2022-12-09T15:00:25.683Z,29.40
2022-12-09T15:03:30.278Z,27.92
2022-12-09T15:05:39.678Z,26.65
2022-12-09T15:08:06.413Z,28.67
2022-12-09T15:10:34.458Z,26.63
2022-12-09T15:13:01.675Z,27.65
2022-12-09T15:15:32.670Z,27.52
2022-12-09T15:18:00.897Z,26.05
2022-12-09T15:20:29.451Z,25.70
2022-12-09T15:22:59.287Z,26.42
2022-12-09T15:25:26.424Z,25.27
2022-12-09T15:28:01.105Z,25.35
2022-12-09T15:30:29.563Z,23.67
2022-12-09T15:32:56.192Z,26.33
2022-12-09T15:35:24.216Z,24.35
2022-12-09T15:37:52.385Z,24.27
2022-12-09T15:40:20.674Z,23.70
2022-12-09T15:42:48.391Z,27.20
2022-12-09T15:45:16.937Z,25.77
2022-12-09T15:47:49.974Z,26.38
2022-12-09T15:50:25.883Z,26.55
2022-12-09T15:53:11.775Z,25.90
2022-12-09T15:55:41.928Z,28.60
2022-12-09T15:58:12.491Z,25.90
2022-12-09T16:00:40.685Z,24.30
2022-12-09T16:03:08.336Z,27.67
2022-12-09T16:05:41.594Z,29.08
2022-12-09T16:08:09.511Z,25.00
2022-12-09T16:10:45.130Z,30.85
2022-12-09T16:13:13.125Z,29.17
2022-12-09T16:15:45.664Z,30.92
2022-12-09T16:18:17.181Z,26.30
2022-12-09T16:20:45.683Z,29.10
2022-12-09T16:23:20.196Z,29.88
2022-12-09T16:25:48.483Z,28.52
2022-12-09T16:28:26.218Z,32.83
2022-12-09T16:30:58.553Z,33.75
2022-12-09T16:33:25.501Z,28.02
2022-12-09T16:36:03.574Z,26.10
2022-12-09T16:38:31.416Z,23.77
2022-12-09T16:40:59.714Z,24.40
2022-12-09T16:43:27.740Z,26.60
2022-12-09T16:45:55.671Z,26.08
2022-12-09T16:48:23.700Z,27.17
2022-12-09T16:51:08.943Z,25.75
2022-12-09T16:53:40.334Z,25.67
2022-12-09T16:56:17.066Z,24.92
2022-12-09T16:58:43.723Z,26.30
2022-12-09T17:01:12.535Z,24.52
2022-12-09T17:03:47.637Z,24.48
2022-12-09T17:06:15.681Z,24.25
2022-12-09T17:08:42.448Z,22.83
2022-12-09T17:11:09.162Z,24.52
2022-12-09T17:13:36.077Z,23.73
2022-12-09T17:16:03.078Z,22.50
2022-12-09T17:18:29.870Z,24.63
2022-12-09T17:21:04.191Z,24.58
2022-12-09T17:23:36.121Z,24.15
2022-12-09T17:26:06.887Z,27.45
2022-12-09T17:28:35.348Z,27.00
2022-12-09T17:31:02.236Z,27.33
2022-12-09T17:33:29.562Z,26.63
2022-12-09T17:35:56.375Z,27.52
2022-12-09T17:38:23.201Z,28.33
2022-12-09T17:40:49.917Z,44.53
2022-12-09T17:43:16.588Z,43.10
2022-12-09T17:45:43.443Z,38.00
2022-12-09T17:48:10.180Z,38.25
2022-12-09T17:50:37.835Z,38.42
2022-12-09T17:53:04.548Z,37.25
2022-12-09T17:55:31.285Z,30.20
2022-12-09T17:57:57.911Z,31.42
2022-12-09T18:00:24.571Z,27.08
2022-12-09T18:02:51.240Z,29.08
2022-12-09T18:05:17.962Z,40.72
2022-12-09T18:07:44.670Z,34.17
2022-12-09T18:10:11.786Z,36.67
2022-12-09T18:12:40.048Z,34.10
2022-12-09T18:15:06.938Z,30.45
2022-12-09T18:17:34.075Z,26.58
2022-12-09T18:20:00.827Z,26.83
2022-12-09T18:22:27.633Z,26.88
2022-12-09T18:24:54.935Z,28.13
2022-12-09T18:27:21.664Z,27.70
2022-12-09T18:29:48.459Z,26.30
2022-12-09T18:32:15.282Z,27.80
2022-12-09T18:34:41.898Z,30.20
2022-12-09T18:37:08.655Z,47.20
2022-12-09T18:39:35.361Z,53.60
2022-12-09T18:42:02.046Z,40.55
2022-12-09T18:44:28.688Z,37.72
2022-12-09T18:46:55.338Z,33.75
2022-12-09T18:49:23.932Z,35.05
2022-12-09T18:51:52.210Z,34.63
2022-12-09T18:54:20.881Z,32.97
2022-12-09T18:56:47.580Z,42.05
2022-12-09T18:59:14.259Z,56.20
2022-12-09T19:01:42.298Z,48.95
2022-12-09T19:04:13.651Z,46.17
2022-12-09T19:06:41.089Z,46.72
2022-12-09T19:09:09.042Z,47.35
2022-12-09T19:11:36.837Z,40.20
2022-12-09T19:14:03.945Z,37.58
2022-12-09T19:16:30.890Z,30.00
2022-12-09T19:18:57.942Z,33.60
2022-12-09T19:21:25.676Z,27.10
2022-12-09T19:23:53.176Z,26.40
2022-12-09T19:26:21.746Z,24.23
2022-12-09T19:28:49.665Z,22.77
2022-12-09T19:31:18.175Z,22.77
2022-12-09T19:33:44.876Z,35.28
2022-12-09T19:36:12.100Z,28.38
2022-12-09T19:38:39.129Z,26.13
2022-12-09T19:41:05.999Z,21.65
2022-12-09T19:43:33.227Z,21.30
2022-12-09T19:46:07.523Z,22.77
2022-12-09T19:48:37.880Z,20.42
2022-12-09T19:51:08.704Z,20.08
2022-12-09T19:53:36.456Z,19.60
2022-12-09T19:56:04.119Z,20.52
2022-12-09T19:58:31.250Z,20.48
2022-12-09T20:00:58.331Z,20.38
2022-12-09T20:03:25.425Z,23.05
2022-12-09T20:05:53.193Z,19.20
2022-12-09T20:08:20.203Z,21.10
2022-12-09T20:10:47.671Z,19.42
2022-12-09T20:13:15.058Z,20.35
2022-12-09T20:15:42.104Z,21.27
2022-12-09T20:18:09.376Z,21.48
2022-12-09T20:20:36.673Z,21.95
2022-12-09T20:23:03.725Z,19.63
2022-12-09T20:25:30.360Z,17.55
2022-12-09T20:27:57.211Z,18.25
2022-12-09T20:30:24.063Z,17.23
2022-12-09T20:32:50.815Z,18.73
2022-12-09T20:35:17.546Z,17.38
2022-12-09T20:37:44.408Z,17.48
2022-12-09T20:40:11.235Z,17.48
2022-12-09T20:42:38.088Z,20.58
2022-12-09T20:45:05.136Z,16.48
2022-12-09T20:47:31.836Z,15.43
2022-12-09T20:49:58.759Z,16.95
2022-12-09T20:52:25.504Z,15.73
2022-12-09T20:54:52.283Z,17.00
2022-12-09T20:57:18.993Z,16.13
2022-12-09T20:59:45.725Z,19.25
2022-12-09T21:02:13.846Z,18.48
2022-12-09T21:04:40.576Z,20.17
2022-12-09T21:07:07.221Z,18.08
2022-12-09T21:09:33.953Z,17.15
2022-12-09T21:12:00.721Z,18.45
2022-12-09T21:14:32.565Z,20.27
2022-12-09T21:16:59.626Z,18.63
2022-12-09T21:19:30.057Z,17.08
2022-12-09T21:21:56.820Z,16.85
2022-12-09T21:24:24.603Z,18.52
2022-12-09T21:26:53.358Z,18.33
2022-12-09T21:29:20.322Z,20.02
2022-12-09T21:31:48.750Z,20.58
2022-12-09T21:34:15.542Z,19.88
2022-12-09T21:36:43.289Z,20.60
2022-12-09T21:39:11.573Z,20.08
2022-12-09T21:41:38.238Z,18.90
2022-12-09T21:44:05.391Z,19.75
2022-12-09T21:46:33.539Z,20.23
2022-12-09T21:49:03.903Z,19.30
2022-12-09T21:51:31.094Z,20.52
2022-12-09T21:53:57.753Z,22.15
2022-12-09T21:56:25.739Z,20.95
2022-12-09T21:58:53.495Z,20.95
2022-12-09T22:01:21.729Z,22.02
2022-12-09T22:03:48.867Z,22.58
2022-12-09T22:06:16.531Z,22.77
2022-12-09T22:08:43.525Z,23.35
2022-12-09T22:11:11.284Z,24.52
2022-12-09T22:13:39.780Z,22.85
2022-12-09T22:16:11.168Z,21.73
2022-12-09T22:18:37.926Z,23.88
2022-12-09T22:23:53.427Z,22.98
2022-12-09T22:26:20.560Z,22.77
2022-12-09T22:28:47.738Z,22.50
2022-12-09T22:31:22.160Z,23.80
2022-12-09T22:33:49.829Z,22.98
2022-12-09T22:36:16.759Z,23.25
2022-12-09T22:38:43.647Z,25.13
2022-12-09T22:41:13.180Z,23.27
2022-12-09T22:43:40.135Z,23.35
2022-12-09T22:46:08.018Z,22.35
2022-12-09T22:48:34.930Z,21.13
2022-12-09T22:51:05.299Z,24.83
2022-12-09T22:53:32.054Z,22.83
2022-12-09T22:55:58.623Z,21.88
2022-12-09T22:58:25.269Z,22.27
2022-12-09T23:00:52.170Z,21.02
2022-12-09T23:03:18.903Z,22.90
2022-12-09T23:05:45.594Z,22.75
2022-12-09T23:08:12.510Z,23.42
2022-12-09T23:10:39.795Z,20.90
2022-12-09T23:13:06.874Z,23.30
2022-12-09T23:15:33.998Z,24.25
2022-12-09T23:18:00.722Z,22.15
2022-12-09T23:20:28.111Z,24.92
2022-12-09T23:22:54.835Z,21.55
2022-12-09T23:25:21.466Z,20.92
2022-12-09T23:27:48.131Z,23.95
2022-12-09T23:30:14.699Z,21.55
2022-12-09T23:32:41.362Z,21.80
2022-12-09T23:35:08.236Z,28.25
2022-12-09T23:37:34.903Z,23.42
2022-12-09T23:40:01.550Z,24.35
2022-12-09T23:42:28.185Z,21.70
2022-12-09T23:44:54.829Z,23.52
2022-12-09T23:47:21.586Z,21.73
2022-12-09T23:49:48.273Z,22.90
2022-12-09T23:52:14.877Z,23.55
2022-12-09T23:54:41.505Z,26.15
2022-12-09T23:57:08.158Z,26.73
2022-12-09T23:59:34.770Z,24.02
